Observation data for White River Lake on 03/11/2018      Previous  Date  Next       Current Mesonet Observations  Soil Data  Daily Summary Page  Observations in Plain Language
KWVS 110600Z 01019KT 18/03 A2988 RMK A01 T01770029  RH  038%=      5-min Rain = 0
KWVS 110605Z 01016G23KT 18/03 A2989 RMK A01 T01750025  RH  037%=      5-min Rain = 0
KWVS 110610Z 01016G22KT 17/02 A2989 RMK A01 T01720021  RH  037%=      5-min Rain = 0
KWVS 110615Z 01021G29KT 17/02 A2989 RMK A01 T01700023  RH  038%=      5-min Rain = 0
KWVS 110620Z 01022G28KT 17/03 A299 RMK A01 T01680029  RH  040%=      5-min Rain = 0
KWVS 110625Z 01022G29KT 16/04 A2991 RMK A01 T01640042  RH  045%=      5-min Rain = 0
KWVS 110630Z 02022G28KT 16/06 A2991 RMK A01 T01620062  RH  053%=      5-min Rain = 0
KWVS 110635Z 02021G27KT 16/07 A2991 RMK A01 T01600067  RH  055%=      5-min Rain = 0
KWVS 110640Z 02022G30KT 16/07 A2992 RMK A01 T01590072  RH  058%=      5-min Rain = 0
KWVS 110645Z 02022G30KT 16/08 A2992 RMK A01 T01580078  RH  060%=      5-min Rain = 0
KWVS 110650Z 02025G32KT 16/08 A2992 RMK A01 T01580082  RH  062%=      5-min Rain = 0
KWVS 110655Z 01024G31KT 16/09 A2993 RMK A01 T01570086  RH  064%=      5-min Rain = 0
KWVS 110700Z 01024G32KT 16/09 A2994 RMK A01 T01570089  RH  066%=      5-min Rain = 0
KWVS 110705Z 01022G29KT 16/09 A2995 RMK A01 T01560089  RH  066%=      5-min Rain = 0
KWVS 110710Z 01024G31KT 16/09 A2995 RMK A01 T01560088  RH  066%=      5-min Rain = 0
KWVS 110715Z 00024G30KT 15/08 A2995 RMK A01 T01540077  RH  062%=      5-min Rain = 0
KWVS 110720Z 00022G28KT 15/05 A2996 RMK A01 T01500054  RH  054%=      5-min Rain = 0
KWVS 110725Z 00023G33KT 15/03 A2996 RMK A01 T01470033  RH  047%=      5-min Rain = 0
KWVS 110730Z 00029G39KT 15/01 A2997 RMK A01 T01450012  RH  041%=      5-min Rain = 0
KWVS 110735Z 01026G33KT 14/00 A2997 RMK A01 T01430002  RH  039%=      5-min Rain = 0
KWVS 110740Z 01026G34KT 14/M00 A2997 RMK A01 T01421002  RH  038%=      5-min Rain = 0
KWVS 110745Z 01026G34KT 14/M01 A2998 RMK A01 T01411008  RH  036%=      5-min Rain = 0
KWVS 110750Z 01027G34KT 14/M02 A2998 RMK A01 T01401017  RH  034%=      5-min Rain = 0
KWVS 110755Z 01026G36KT 14/M02 A2998 RMK A01 T01401023  RH  033%=      5-min Rain = 0
KWVS 110800Z 01024G30KT 14/M03 A2999 RMK A01 T01401028  RH  031%=      5-min Rain = 0
KWVS 110805Z 01026G34KT 14/M03 A2999 RMK A01 T01391033  RH  030%=      5-min Rain = 0
KWVS 110810Z 01024G36KT 14/M04 A2999 RMK A01 T01391036  RH  030%=      5-min Rain = 0
KWVS 110815Z 01028G35KT 14/M04 A30 RMK A01 T01381041  RH  029%=      5-min Rain = 0
KWVS 110820Z 01024G32KT 14/M04 A30 RMK A01 T01371043  RH  029%=      5-min Rain = 0
KWVS 110825Z 01026G35KT 14/M04 A30 RMK A01 T01361043  RH  029%=      5-min Rain = 0
KWVS 110830Z 01025G34KT 13/M04 A30 RMK A01 T01341044  RH  029%=      5-min Rain = 0
KWVS 110835Z 02027G41KT 13/M04 A30 RMK A01 T01331044  RH  029%=      5-min Rain = 0
KWVS 110840Z 01027G35KT 13/M04 A30 RMK A01 T01321044  RH  029%=      5-min Rain = 0
KWVS 110845Z 01026G33KT 13/M04 A30 RMK A01 T01311043  RH  029%=      5-min Rain = 0
KWVS 110850Z 02023G31KT 13/M04 A3001 RMK A01 T01301043  RH  030%=      5-min Rain = 0
KWVS 110855Z 01021G28KT 13/M04 A3001 RMK A01 T01291043  RH  030%=      5-min Rain = 0
KWVS 110900Z 01025G33KT 13/M04 A3001 RMK A01 T01281044  RH  030%=      5-min Rain = 0
KWVS 110905Z 01025G33KT 13/M04 A3001 RMK A01 T01271042  RH  031%=      5-min Rain = 0
KWVS 110910Z 01027G34KT 13/M04 A3002 RMK A01 T01261038  RH  032%=      5-min Rain = 0
KWVS 110915Z 01021G33KT 13/M04 A3002 RMK A01 T01251037  RH  032%=      5-min Rain = 0
KWVS 110920Z 01023G30KT 12/M04 A3002 RMK A01 T01241036  RH  033%=      5-min Rain = 0
KWVS 110925Z 01022G29KT 12/M04 A3002 RMK A01 T01231035  RH  033%=      5-min Rain = 0
KWVS 110930Z 01025G31KT 12/M03 A3002 RMK A01 T01231034  RH  033%=      5-min Rain = 0
KWVS 110935Z 01023G33KT 12/M03 A3003 RMK A01 T01231034  RH  033%=      5-min Rain = 0
KWVS 110940Z 01023G32KT 12/M04 A3003 RMK A01 T01231037  RH  033%=      5-min Rain = 0
KWVS 110945Z 01024G34KT 12/M04 A3003 RMK A01 T01231041  RH  032%=      5-min Rain = 0
KWVS 110950Z 01022G31KT 12/M04 A3003 RMK A01 T01221043  RH  031%=      5-min Rain = 0
KWVS 110955Z 01025G32KT 12/M05 A3003 RMK A01 T01221047  RH  030%=      5-min Rain = 0
KWVS 111000Z 02022G28KT 12/M05 A3003 RMK A01 T01221051  RH  030%=      5-min Rain = 0
KWVS 111005Z 01022G30KT 12/M05 A3003 RMK A01 T01211052  RH  029%=      5-min Rain = 0
KWVS 111010Z 01021G29KT 12/M05 A3003 RMK A01 T01211053  RH  029%=      5-min Rain = 0
KWVS 111015Z 01021G27KT 12/M05 A3004 RMK A01 T01211053  RH  029%=      5-min Rain = 0
KWVS 111020Z 01022G29KT 12/M05 A3003 RMK A01 T01211053  RH  029%=      5-min Rain = 0
KWVS 111025Z 01019G25KT 12/M05 A3004 RMK A01 T01201052  RH  030%=      5-min Rain = 0
KWVS 111030Z 01019G26KT 12/M05 A3004 RMK A01 T01191052  RH  030%=      5-min Rain = 0
KWVS 111035Z 01021G28KT 12/M05 A3004 RMK A01 T01191053  RH  030%=      5-min Rain = 0
KWVS 111040Z 01021G28KT 12/M05 A3004 RMK A01 T01181053  RH  030%=      5-min Rain = 0
KWVS 111045Z 01019G24KT 12/M05 A3005 RMK A01 T01181053  RH  030%=      5-min Rain = 0
KWVS 111050Z 01019G25KT 12/M05 A3005 RMK A01 T01171053  RH  030%=      5-min Rain = 0
KWVS 111055Z 01023G30KT 12/M05 A3006 RMK A01 T01171053  RH  030%=      5-min Rain = 0
KWVS 111100Z 01020G28KT 12/M05 A3006 RMK A01 T01161052  RH  030%=      5-min Rain = 0
KWVS 111105Z 01023G32KT 12/M05 A3006 RMK A01 T01161050  RH  031%=      5-min Rain = 0
KWVS 111110Z 01022G28KT 11/M05 A3006 RMK A01 T01141046  RH  032%=      5-min Rain = 0
KWVS 111115Z 01023G28KT 11/M04 A3007 RMK A01 T01121043  RH  034%=      5-min Rain = 0
KWVS 111120Z 01024G31KT 11/M04 A3007 RMK A01 T01111040  RH  035%=      5-min Rain = 0
KWVS 111125Z 01024G31KT 11/M04 A3008 RMK A01 T01101041  RH  035%=      5-min Rain = 0
KWVS 111130Z 01020G29KT 11/M04 A3008 RMK A01 T01091042  RH  035%=      5-min Rain = 0
KWVS 111135Z 01020G28KT 11/M04 A3008 RMK A01 T01081043  RH  035%=      5-min Rain = 0
KWVS 111140Z 01023G30KT 11/M04 A3009 RMK A01 T01071044  RH  034%=      5-min Rain = 0
KWVS 111145Z 01024G31KT 11/M05 A3009 RMK A01 T01061045  RH  034%=      5-min Rain = 0
KWVS 111150Z 01022G29KT 11/M05 A3009 RMK A01 T01051045  RH  035%=      5-min Rain = 0
KWVS 111155Z 01022G28KT 10/M05 A3009 RMK A01 T01041045  RH  035%=      5-min Rain = 0
KWVS 111200Z 01020G29KT 10/M04 A3009 RMK A01 T01021044  RH  035%=      5-min Rain = 0
KWVS 111205Z 01022G29KT 10/M04 A3009 RMK A01 T01011043  RH  036%=      5-min Rain = 0
KWVS 111210Z 01020G26KT 10/M04 A3009 RMK A01 T01001042  RH  037%=      5-min Rain = 0
KWVS 111215Z 01024G35KT 10/M04 A3009 RMK A01 T00991041  RH  037%=      5-min Rain = 0
KWVS 111220Z 01024G32KT 10/M04 A301 RMK A01 T00991040  RH  038%=      5-min Rain = 0
KWVS 111225Z 02024G32KT 10/M04 A3011 RMK A01 T00981039  RH  038%=      5-min Rain = 0
KWVS 111230Z 01024G34KT 10/M04 A3011 RMK A01 T00981038  RH  038%=      5-min Rain = 0
KWVS 111235Z 01022G30KT 10/M04 A3011 RMK A01 T00971037  RH  039%=      5-min Rain = 0
KWVS 111240Z 01020G25KT 10/M04 A3012 RMK A01 T00961037  RH  039%=      5-min Rain = 0
KWVS 111245Z 01020G28KT 10/M04 A3013 RMK A01 T00951036  RH  040%=      5-min Rain = 0
KWVS 111250Z 01020G29KT 10/M04 A3013 RMK A01 T00951036  RH  040%=      5-min Rain = 0
KWVS 111255Z 01023G30KT 09/M04 A3013 RMK A01 T00941036  RH  040%=      5-min Rain = 0
KWVS 111300Z 01022G29KT 09/M04 A3013 RMK A01 T00941037  RH  040%=      5-min Rain = 0
KWVS 111305Z 01022G29KT 09/M04 A3013 RMK A01 T00931038  RH  040%=      5-min Rain = 0
KWVS 111310Z 01021G26KT 09/M04 A3014 RMK A01 T00911038  RH  040%=      5-min Rain = 0
KWVS 111315Z 01020G26KT 09/M04 A3014 RMK A01 T00901039  RH  040%=      5-min Rain = 0
KWVS 111320Z 00020G25KT 09/M04 A3014 RMK A01 T00881039  RH  041%=      5-min Rain = 0
KWVS 111325Z 00017G23KT 09/M04 A3015 RMK A01 T00851040  RH  041%=      5-min Rain = 0
KWVS 111330Z 35019G25KT 09/M04 A3015 RMK A01 T00851042  RH  041%=      5-min Rain = 0
KWVS 111335Z 35020G26KT 08/M05 A3016 RMK A01 T00831047  RH  039%=      5-min Rain = 0
KWVS 111340Z 36019G25KT 08/M05 A3016 RMK A01 T00831050  RH  039%=      5-min Rain = 0
KWVS 111345Z 00022G28KT 08/M06 A3017 RMK A01 T00831055  RH  037%=      5-min Rain = 0
KWVS 111350Z 00020G25KT 08/M06 A3017 RMK A01 T00841057  RH  036%=      5-min Rain = 0
KWVS 111355Z 00020KT 09/M06 A3017 RMK A01 T00871059  RH  035%=      5-min Rain = 0
KWVS 111400Z 36019G24KT 09/M06 A3018 RMK A01 T00881062  RH  034%=      5-min Rain = 0
KWVS 111405Z 35021G28KT 09/M06 A3018 RMK A01 T00901064  RH  033%=      5-min Rain = 0
KWVS 111410Z 36022G30KT 09/M07 A3019 RMK A01 T00921066  RH  032%=      5-min Rain = 0
KWVS 111415Z 00023G30KT 09/M07 A3019 RMK A01 T00901066  RH  032%=      5-min Rain = 0
KWVS 111420Z 01022G30KT 09/M07 A3019 RMK A01 T00911066  RH  032%=      5-min Rain = 0
KWVS 111425Z 01022G28KT 09/M07 A3019 RMK A01 T00901068  RH  032%=      5-min Rain = 0
KWVS 111430Z 01020G29KT 09/M07 A302 RMK A01 T00911067  RH  032%=      5-min Rain = 0
KWVS 111435Z 01020KT 09/M07 A302 RMK A01 T00901066  RH  032%=      5-min Rain = 0
KWVS 111440Z 01021G28KT 09/M07 A302 RMK A01 T00901066  RH  033%=      5-min Rain = 0
KWVS 111445Z 00021G27KT 09/M07 A302 RMK A01 T00881069  RH  032%=      5-min Rain = 0
KWVS 111450Z 00018G26KT 09/M07 A3021 RMK A01 T00891070  RH  032%=      5-min Rain = 0
KWVS 111455Z 00021G27KT 09/M07 A3021 RMK A01 T00881073  RH  031%=      5-min Rain = 0
KWVS 111500Z 01023G30KT 09/M08 A3022 RMK A01 T00871076  RH  031%=      5-min Rain = 0
KWVS 111505Z 01023G31KT 09/M08 A3022 RMK A01 T00871079  RH  030%=      5-min Rain = 0
KWVS 111510Z 01022G29KT 09/M08 A3022 RMK A01 T00871079  RH  030%=      5-min Rain = 0
KWVS 111515Z 01018G25KT 09/M08 A3022 RMK A01 T00881078  RH  030%=      5-min Rain = 0
KWVS 111520Z 00023G30KT 09/M08 A3022 RMK A01 T00871078  RH  030%=      5-min Rain = 0
KWVS 111525Z 01022G29KT 09/M08 A3023 RMK A01 T00881079  RH  030%=      5-min Rain = 0
KWVS 111530Z 01021G27KT 09/M08 A3023 RMK A01 T00911076  RH  030%=      5-min Rain = 0
KWVS 111535Z 00022G29KT 09/M08 A3023 RMK A01 T00901075  RH  030%=      5-min Rain = 0
KWVS 111540Z 01019G26KT 09/M07 A3023 RMK A01 T00931072  RH  030%=      5-min Rain = 0
KWVS 111545Z 01022G28KT 09/M07 A3024 RMK A01 T00901073  RH  031%=      5-min Rain = 0
KWVS 111550Z 01021G27KT 10/M07 A3024 RMK A01 T00951072  RH  030%=      5-min Rain = 0
KWVS 111555Z 01022G27KT 09/M07 A3025 RMK A01 T00931073  RH  030%=      5-min Rain = 0
KWVS 111600Z 00022G29KT 09/M07 A3025 RMK A01 T00911070  RH  031%=      5-min Rain = 0
KWVS 111605Z 01024G30KT 09/M07 A3025 RMK A01 T00871073  RH  032%=      5-min Rain = 0
KWVS 111610Z 01024G30KT 08/M07 A3025 RMK A01 T00841074  RH  032%=      5-min Rain = 0
KWVS 111615Z 02021G28KT 09/M07 A3026 RMK A01 T00921071  RH  031%=      5-min Rain = 0
KWVS 111620Z 02019G24KT 10/M07 A3026 RMK A01 T00961069  RH  030%=      5-min Rain = 0
KWVS 111625Z 00021G26KT 10/M07 A3026 RMK A01 T00951068  RH  031%=      5-min Rain = 0
KWVS 111630Z 00021G28KT 09/M07 A3026 RMK A01 T00921071  RH  031%=      5-min Rain = 0
KWVS 111635Z 01024G30KT 09/M08 A3026 RMK A01 T00911078  RH  029%=      5-min Rain = 0
KWVS 111640Z 01020G26KT 09/M08 A3027 RMK A01 T00911078  RH  029%=      5-min Rain = 0
KWVS 111645Z 01017G23KT 10/M07 A3027 RMK A01 T00961073  RH  030%=      5-min Rain = 0
KWVS 111650Z 36022G27KT 10/M08 A3027 RMK A01 T00971080  RH  028%=      5-min Rain = 0
KWVS 111655Z 01024G30KT 10/M09 A3027 RMK A01 T00951088  RH  026%=      5-min Rain = 0
KWVS 111700Z 01022G27KT 09/M09 A3027 RMK A01 T00931089  RH  027%=      5-min Rain = 0
KWVS 111705Z 01018G26KT 10/M09 A3027 RMK A01 T01011087  RH  026%=      5-min Rain = 0
KWVS 111710Z 01019G24KT 10/M08 A3027 RMK A01 T01021083  RH  026%=      5-min Rain = 0
KWVS 111715Z 35018G23KT 10/M08 A3027 RMK A01 T01011076  RH  028%=      5-min Rain = 0
KWVS 111720Z 36019KT 10/M08 A3027 RMK A01 T01011076  RH  028%=      5-min Rain = 0
KWVS 111725Z 01019G24KT 10/M08 A3027 RMK A01 T01041079  RH  027%=      5-min Rain = 0
KWVS 111730Z 01019KT 11/M08 A3027 RMK A01 T01081080  RH  026%=      5-min Rain = 0
KWVS 111735Z 00019G24KT 11/M08 A3027 RMK A01 T01101080  RH  026%=      5-min Rain = 0
KWVS 111740Z 00019G25KT 11/M08 A3027 RMK A01 T01091083  RH  025%=      5-min Rain = 0
KWVS 111745Z 00019G24KT 11/M09 A3028 RMK A01 T01051086  RH  025%=      5-min Rain = 0
KWVS 111750Z 01016KT 11/M09 A3028 RMK A01 T01081087  RH  024%=      5-min Rain = 0
KWVS 111755Z 01016G24KT 11/M09 A3027 RMK A01 T01131088  RH  023%=      5-min Rain = 0
KWVS 111800Z 01020G26KT 12/M09 A3027 RMK A01 T01191091  RH  022%=      5-min Rain = 0
KWVS 111805Z 02018G23KT 13/M09 A3027 RMK A01 T01251091  RH  021%=      5-min Rain = 0
KWVS 111810Z 01017G24KT 13/M09 A3027 RMK A01 T01271092  RH  021%=      5-min Rain = 0
KWVS 111815Z 35021G28KT 13/M10 A3027 RMK A01 T01271097  RH  020%=      5-min Rain = 0
KWVS 111820Z 02016G21KT 13/M09 A3027 RMK A01 T01341093  RH  020%=      5-min Rain = 0
KWVS 111825Z 01019G25KT 13/M09 A3027 RMK A01 T01261092  RH  021%=      5-min Rain = 0
KWVS 111830Z 01018G24KT 12/M10 A3027 RMK A01 T01231096  RH  021%=      5-min Rain = 0
KWVS 111835Z 00017G23KT 12/M10 A3027 RMK A01 T01201096  RH  021%=      5-min Rain = 0
KWVS 111840Z 01016G22KT 12/M10 A3027 RMK A01 T01231095  RH  021%=      5-min Rain = 0
KWVS 111845Z 01017G22KT 13/M10 A3027 RMK A01 T01261097  RH  020%=      5-min Rain = 0
KWVS 111850Z 01016G22KT 13/M10 A3027 RMK A01 T01291095  RH  020%=      5-min Rain = 0
KWVS 111855Z 01017KT 13/M10 A3027 RMK A01 T01281099  RH  019%=      5-min Rain = 0
KWVS 111900Z 01017G26KT 13/M10 A3026 RMK A01 T01301097  RH  020%=      5-min Rain = 0
KWVS 111905Z 01019G26KT 13/M10 A3026 RMK A01 T01301098  RH  019%=      5-min Rain = 0
KWVS 111910Z 02012G18KT 12/M10 A3026 RMK A01 T01241098  RH  020%=      5-min Rain = 0
KWVS 111915Z 36017G26KT 13/M10 A3026 RMK A01 T01261099  RH  020%=      5-min Rain = 0
KWVS 111920Z 01015G21KT 13/M10 A3026 RMK A01 T01271100  RH  020%=      5-min Rain = 0
KWVS 111925Z 00015KT 13/M10 A3026 RMK A01 T01261098  RH  020%=      5-min Rain = 0
KWVS 111930Z 35013G18KT 13/M10 A3026 RMK A01 T01251095  RH  020%=      5-min Rain = 0
KWVS 111935Z 01015G21KT 13/M10 A3026 RMK A01 T01281097  RH  020%=      5-min Rain = 0
KWVS 111940Z 01015G20KT 13/M10 A3026 RMK A01 T01291097  RH  020%=      5-min Rain = 0
KWVS 111945Z 01013G19KT 13/M10 A3026 RMK A01 T01311096  RH  020%=      5-min Rain = 0
KWVS 111950Z 00013G19KT 13/M10 A3026 RMK A01 T01281097  RH  020%=      5-min Rain = 0
KWVS 111955Z 36016G22KT 13/M10 A3026 RMK A01 T01311098  RH  019%=      5-min Rain = 0
KWVS 112000Z 35015G20KT 13/M10 A3026 RMK A01 T01311101  RH  019%=      5-min Rain = 0
KWVS 112005Z 36016KT 13/M10 A3026 RMK A01 T01271098  RH  020%=      5-min Rain = 0
KWVS 112010Z 00012G19KT 13/M10 A3026 RMK A01 T01311095  RH  020%=      5-min Rain = 0
KWVS 112015Z 00014KT 13/M10 A3025 RMK A01 T01321095  RH  020%=      5-min Rain = 0
KWVS 112020Z 34016KT 13/M10 A3025 RMK A01 T01331095  RH  019%=      5-min Rain = 0
KWVS 112025Z 34015G21KT 13/M10 A3025 RMK A01 T01331095  RH  020%=      5-min Rain = 0
KWVS 112030Z 00013KT 13/M10 A3025 RMK A01 T01281095  RH  020%=      5-min Rain = 0
KWVS 112035Z 00012G19KT 13/M09 A3025 RMK A01 T01311094  RH  020%=      5-min Rain = 0
KWVS 112040Z 01015G20KT 13/M10 A3025 RMK A01 T01291096  RH  020%=      5-min Rain = 0
KWVS 112045Z 00012KT 13/M10 A3025 RMK A01 T01281095  RH  020%=      5-min Rain = 0
KWVS 112050Z 00011G17KT 13/M09 A3024 RMK A01 T01291094  RH  020%=      5-min Rain = 0
KWVS 112055Z 36016KT 13/M10 A3024 RMK A01 T01311097  RH  019%=      5-min Rain = 0
KWVS 112100Z 36013KT 14/M10 A3024 RMK A01 T01351097  RH  019%=      5-min Rain = 0
KWVS 112105Z 36017G24KT 14/M10 A3024 RMK A01 T01351103  RH  018%=      5-min Rain = 0
KWVS 112110Z 35017G23KT 14/M10 A3024 RMK A01 T01361103  RH  018%=      5-min Rain = 0
KWVS 112115Z 35016KT 14/M11 A3024 RMK A01 T01361105  RH  018%=      5-min Rain = 0
KWVS 112120Z 34016G21KT 13/M11 A3024 RMK A01 T01331107  RH  018%=      5-min Rain = 0
KWVS 112125Z 00014G20KT 14/M11 A3023 RMK A01 T01361105  RH  018%=      5-min Rain = 0
KWVS 112130Z 01012G17KT 13/M11 A3023 RMK A01 T01341106  RH  018%=      5-min Rain = 0
KWVS 112135Z 36016KT 13/M11 A3023 RMK A01 T01321108  RH  018%=      5-min Rain = 0
KWVS 112140Z 35015G20KT 13/M11 A3023 RMK A01 T01311108  RH  018%=      5-min Rain = 0
KWVS 112145Z 35011KT 13/M11 A3023 RMK A01 T01321107  RH  018%=      5-min Rain = 0
KWVS 112150Z 35010KT 13/M11 A3023 RMK A01 T01331107  RH  018%=      5-min Rain = 0
KWVS 112155Z 00011KT 14/M11 A3023 RMK A01 T01401106  RH  017%=      5-min Rain = 0
KWVS 112200Z 36008KT 15/M11 A3022 RMK A01 T01451105  RH  017%=      5-min Rain = 0
KWVS 112205Z 00009KT 15/M11 A3022 RMK A01 T01451109  RH  016%=      5-min Rain = 0
KWVS 112210Z 00010G16KT 15/M11 A3022 RMK A01 T01491112  RH  015%=      5-min Rain = 0
KWVS 112215Z 35014G19KT 15/M12 A3022 RMK A01 T01491120  RH  014%=      5-min Rain = 0
KWVS 112220Z 01014G21KT 15/M13 A3022 RMK A01 T01451125  RH  014%=      5-min Rain = 0
KWVS 112225Z 00011KT 15/M13 A3022 RMK A01 T01471129  RH  013%=      5-min Rain = 0
KWVS 112230Z 35014KT 15/M13 A3022 RMK A01 T01491127  RH  014%=      5-min Rain = 0
KWVS 112235Z 00013G19KT 15/M13 A3022 RMK A01 T01491127  RH  014%=      5-min Rain = 0
KWVS 112240Z 02013G19KT 15/M13 A3022 RMK A01 T01501126  RH  014%=      5-min Rain = 0
KWVS 112245Z 03011KT 15/M13 A3022 RMK A01 T01511126  RH  013%=      5-min Rain = 0
KWVS 112250Z 02011G17KT 15/M13 A3022 RMK A01 T01511131  RH  013%=      5-min Rain = 0
KWVS 112255Z 36016KT 15/M15 A3022 RMK A01 T01521146  RH  011%=      5-min Rain = 0
KWVS 112300Z 00015KT 15/M15 A3023 RMK A01 T01501153  RH  011%=      5-min Rain = 0
KWVS 112305Z 35016KT 15/M15 A3023 RMK A01 T01501151  RH  011%=      5-min Rain = 0
KWVS 112310Z 00014KT 15/M15 A3023 RMK A01 T01481151  RH  011%=      5-min Rain = 0
KWVS 112315Z 00014G19KT 15/M16 A3023 RMK A01 T01471155  RH  011%=      5-min Rain = 0
KWVS 112320Z 00016KT 14/M17 A3023 RMK A01 T01441166  RH  010%=      5-min Rain = 0
KWVS 112325Z 36014KT 15/M16 A3024 RMK A01 T01451160  RH  011%=      5-min Rain = 0
KWVS 112330Z 01012KT 15/M16 A3024 RMK A01 T01471157  RH  011%=      5-min Rain = 0
KWVS 112335Z 01013KT 14/M15 A3024 RMK A01 T01441151  RH  011%=      5-min Rain = 0
KWVS 112340Z 00014KT 14/M15 A3024 RMK A01 T01441151  RH  011%=      5-min Rain = 0
KWVS 112345Z 01014KT 14/M15 A3024 RMK A01 T01431152  RH  011%=      5-min Rain = 0
KWVS 112350Z 01012KT 14/M15 A3024 RMK A01 T01421153  RH  011%=      5-min Rain = 0
KWVS 112355Z 00011G16KT 14/M15 A3024 RMK A01 T01421154  RH  011%=      5-min Rain = 0
KWVS 120000Z 00013KT 14/M15 A3024 RMK A01 T01401154  RH  012%=      5-min Rain = 0
KWVS 120005Z 01010G18KT 14/M16 A3024 RMK A01 T01391156  RH  011%=      5-min Rain = 0
KWVS 120010Z 01013G18KT 14/M17 A3024 RMK A01 T01381170  RH  010%=      5-min Rain = 0
KWVS 120015Z 01013KT 14/M18 A3025 RMK A01 T01361182  RH  009%=      5-min Rain = 0
KWVS 120020Z 00012KT 13/M19 A3025 RMK A01 T01341189  RH  009%=      5-min Rain = 0
KWVS 120025Z 01011KT 13/M19 A3025 RMK A01 T01331188  RH  009%=      5-min Rain = 0
KWVS 120030Z 01012KT 13/M19 A3025 RMK A01 T01311187  RH  009%=      5-min Rain = 0
KWVS 120035Z 00013KT 13/M19 A3025 RMK A01 T01291194  RH  009%=      5-min Rain = 0
KWVS 120040Z 01012KT 13/M20 A3026 RMK A01 T01261196  RH  009%=      5-min Rain = 0
KWVS 120045Z 02011KT 12/M20 A3026 RMK A01 T01221195  RH  009%=      5-min Rain = 0
KWVS 120050Z 01013G19KT 12/M19 A3026 RMK A01 T01181187  RH  010%=      5-min Rain = 0
KWVS 120055Z 02015KT 12/M18 A3026 RMK A01 T01171177  RH  011%=      5-min Rain = 0
KWVS 120100Z 02011KT 11/M18 A3027 RMK A01 T01131176  RH  011%=      5-min Rain = 0
KWVS 120105Z 02011KT 11/M18 A3027 RMK A01 T01101175  RH  012%=      5-min Rain = 0
KWVS 120110Z 02009KT 11/M18 A3027 RMK A01 T01071176  RH  012%=      5-min Rain = 0
KWVS 120115Z 02008KT 10/M18 A3027 RMK A01 T01021176  RH  012%=      5-min Rain = 0
KWVS 120120Z 01008KT 10/M18 A3027 RMK A01 T00981176  RH  013%=      5-min Rain = 0
KWVS 120125Z 02008KT 09/M18 A3028 RMK A01 T00931176  RH  013%=      5-min Rain = 0
KWVS 120130Z 02008KT 09/M18 A3028 RMK A01 T00871176  RH  014%=      5-min Rain = 0
KWVS 120135Z 02008KT 08/M18 A3028 RMK A01 T00831175  RH  014%=      5-min Rain = 0
KWVS 120140Z 02007KT 08/M17 A3028 RMK A01 T00841174  RH  014%=      5-min Rain = 0
KWVS 120145Z 02007KT 09/M17 A3029 RMK A01 T00851174  RH  014%=      5-min Rain = 0
KWVS 120150Z 01007KT 09/M18 A3029 RMK A01 T00861175  RH  014%=      5-min Rain = 0
KWVS 120155Z 01008KT 09/M18 A3029 RMK A01 T00851175  RH  014%=      5-min Rain = 0
KWVS 120200Z 01008KT 08/M17 A3029 RMK A01 T00821174  RH  014%=      5-min Rain = 0
KWVS 120205Z 00007KT 08/M17 A3029 RMK A01 T00801174  RH  015%=      5-min Rain = 0
KWVS 120210Z 00006KT 07/M17 A3029 RMK A01 T00741173  RH  015%=      5-min Rain = 0
KWVS 120215Z 00006KT 07/M17 A303 RMK A01 T00711172  RH  016%=      5-min Rain = 0
KWVS 120220Z 00007KT 07/M17 A303 RMK A01 T00681172  RH  016%=      5-min Rain = 0
KWVS 120225Z 35007KT 06/M17 A303 RMK A01 T00641171  RH  017%=      5-min Rain = 0
KWVS 120230Z 36007KT 06/M17 A303 RMK A01 T00641171  RH  017%=      5-min Rain = 0
KWVS 120235Z 35007KT 07/M17 A303 RMK A01 T00661171  RH  016%=      5-min Rain = 0
KWVS 120240Z 35007KT 07/M17 A303 RMK A01 T00671171  RH  016%=      5-min Rain = 0
KWVS 120245Z 36007KT 07/M17 A303 RMK A01 T00671172  RH  016%=      5-min Rain = 0
KWVS 120250Z 35008KT 07/M17 A303 RMK A01 T00661171  RH  016%=      5-min Rain = 0
KWVS 120255Z 35008KT 07/M17 A303 RMK A01 T00661171  RH  016%=      5-min Rain = 0
KWVS 120300Z 36008KT 06/M17 A303 RMK A01 T00631170  RH  017%=      5-min Rain = 0
KWVS 120305Z 36008KT 06/M17 A3031 RMK A01 T00631169  RH  017%=      5-min Rain = 0
KWVS 120310Z 00009KT 06/M17 A3031 RMK A01 T00611169  RH  017%=      5-min Rain = 0
KWVS 120315Z 00009KT 06/M17 A3031 RMK A01 T00601167  RH  018%=      5-min Rain = 0
KWVS 120320Z 36008KT 06/M17 A3031 RMK A01 T00601166  RH  018%=      5-min Rain = 0
KWVS 120325Z 00008KT 06/M17 A3031 RMK A01 T00591166  RH  018%=      5-min Rain = 0
KWVS 120330Z 00007KT 06/M17 A3032 RMK A01 T00601165  RH  018%=      5-min Rain = 0
KWVS 120335Z 36006KT 06/M17 A3032 RMK A01 T00581165  RH  018%=      5-min Rain = 0
KWVS 120340Z 36006KT 06/M16 A3032 RMK A01 T00591164  RH  018%=      5-min Rain = 0
KWVS 120345Z 36007KT 06/M16 A3032 RMK A01 T00561160  RH  019%=      5-min Rain = 0
KWVS 120350Z 35007KT 05/M16 A3033 RMK A01 T00531156  RH  020%=      5-min Rain = 0
KWVS 120355Z 35007KT 05/M15 A3033 RMK A01 T00481153  RH  021%=      5-min Rain = 0
KWVS 120400Z 36007KT 05/M15 A3033 RMK A01 T00481150  RH  022%=      5-min Rain = 0
KWVS 120405Z 36008KT 05/M15 A3033 RMK A01 T00491147  RH  023%=      5-min Rain = 0
KWVS 120410Z 36008KT 05/M14 A3033 RMK A01 T00511143  RH  023%=      5-min Rain = 0
KWVS 120415Z 36008KT 05/M14 A3033 RMK A01 T00521137  RH  024%=      5-min Rain = 0
KWVS 120420Z 35008KT 05/M14 A3033 RMK A01 T00491140  RH  024%=      5-min Rain = 0
KWVS 120425Z 35007KT 05/M14 A3034 RMK A01 T00471139  RH  024%=      5-min Rain = 0
KWVS 120430Z 36007KT 05/M14 A3034 RMK A01 T00481136  RH  025%=      5-min Rain = 0
KWVS 120435Z 36008KT 05/M13 A3034 RMK A01 T00491132  RH  026%=      5-min Rain = 0
KWVS 120440Z 00009KT 05/M12 A3034 RMK A01 T00511124  RH  027%=      5-min Rain = 0
KWVS 120445Z 00008KT 05/M12 A3034 RMK A01 T00501120  RH  028%=      5-min Rain = 0
KWVS 120450Z 36008KT 05/M12 A3034 RMK A01 T00451121  RH  029%=      5-min Rain = 0
KWVS 120455Z 36007KT 04/M12 A3034 RMK A01 T00411119  RH  030%=      5-min Rain = 0

Page generated in 0.033 seconds.